Time;durP1;ratioP1;P1;durP2;ratioP2;P2;SDS_P1;SDS_P2;PMS_P1;PMS_P2;Temp;Humidity;BMP_temperature;BMP_pressure;BME280_temperature;BME280_humidity;BME280_pressure;Samples;Min_cycle;Max_cycle;Signal;HPM_P1;HPM_P2
2023/03/13 00:02:08;;;;;;;;;;;26.10;99.90;;;;;;4933915;29;19907;-49
2023/03/13 00:04:33;;;;;;;;;;;26.10;99.90;;;;;;4919346;29;19914;-50
2023/03/13 00:06:59;;;;;;;;;;;26.00;99.90;;;;;;4918852;29;19915;-49
2023/03/13 00:09:26;;;;;;;;;;;26.00;99.90;;;;;;4934031;29;19915;-49
2023/03/13 00:11:51;;;;;;;;;;;26.00;99.90;;;;;;4919176;29;19990;-49
2023/03/13 00:14:17;;;;;;;;;;;26.00;99.90;;;;;;4918127;29;19938;-49
2023/03/13 00:16:42;;;;;;;;;;;26.00;99.90;;;;;;4919302;29;19945;-49
2023/03/13 00:19:08;;;;;;;;;;;26.00;99.90;;;;;;4918975;29;20315;-49
2023/03/13 00:21:36;;;;;;;;;;;26.00;99.90;;;;;;4919107;29;19907;-50
2023/03/13 00:24:02;;;;;;;;;;;25.90;99.90;;;;;;4917805;29;19961;-49
2023/03/13 00:26:28;;;;;;;;;;;25.90;99.90;;;;;;4919130;29;20347;-49
2023/03/13 00:28:53;;;;;;;;;;;25.90;99.90;;;;;;4917689;29;20276;-49
2023/03/13 00:31:20;;;;;;;;;;;26.00;99.90;;;;;;4919156;29;20001;-49
2023/03/13 00:33:47;;;;;;;;;;;25.90;99.90;;;;;;4919128;29;19907;-49
2023/03/13 00:36:14;;;;;;;;;;;25.90;99.90;;;;;;4918972;29;19934;-49
2023/03/13 00:38:40;;;;;;;;;;;25.90;99.90;;;;;;4918545;29;20356;-49
2023/03/13 00:41:07;;;;;;;;;;;25.90;99.90;;;;;;4918678;29;19917;-50
2023/03/13 00:43:33;;;;;;;;;;;25.90;99.90;;;;;;4918492;29;19919;-49
2023/03/13 00:45:59;;;;;;;;;;;25.90;99.90;;;;;;4918677;29;19907;-49
2023/03/13 00:48:25;;;;;;;;;;;25.80;99.90;;;;;;4918678;29;20430;-49
2023/03/13 00:50:50;;;;;;;;;;;25.80;99.90;;;;;;4918651;29;19914;-49
2023/03/13 00:53:16;;;;;;;;;;;25.80;99.90;;;;;;4929985;29;19907;-48
2023/03/13 00:55:51;;;;;;;;;;;25.80;99.90;;;;;;4933134;29;19996;-48
2023/03/13 00:58:16;;;;;;;;;;;25.80;99.90;;;;;;4932886;29;19962;-49
2023/03/13 01:00:42;;;;;;;;;;;25.80;99.90;;;;;;4929737;23;19923;-50
2023/03/13 01:03:07;;;;;;;;;;;25.80;99.90;;;;;;4918382;29;19907;-49
2023/03/13 01:05:33;;;;;;;;;;;25.80;99.90;;;;;;4918319;29;19914;-49
2023/03/13 01:07:59;;;;;;;;;;;25.80;99.90;;;;;;4918009;29;20383;-50
2023/03/13 01:10:24;;;;;;;;;;;25.80;99.90;;;;;;4918172;29;20025;-50
2023/03/13 01:12:50;;;;;;;;;;;25.80;99.90;;;;;;4918609;29;19930;-50
2023/03/13 01:15:18;;;;;;;;;;;25.70;99.90;;;;;;4917899;29;19914;-50
2023/03/13 01:17:44;;;;;;;;;;;25.70;99.90;;;;;;4918088;29;19914;-50
2023/03/13 01:20:10;;;;;;;;;;;25.80;99.90;;;;;;4917977;29;19907;-49
2023/03/13 01:22:36;;;;;;;;;;;25.70;99.90;;;;;;4917797;29;19907;-49
2023/03/13 01:25:02;;;;;;;;;;;25.70;99.90;;;;;;4918005;29;19907;-49
2023/03/13 01:27:27;;;;;;;;;;;25.70;99.90;;;;;;4917772;29;19938;-50
2023/03/13 01:29:53;;;;;;;;;;;25.70;99.90;;;;;;4918083;29;19911;-49
2023/03/13 01:32:19;;;;;;;;;;;25.70;99.90;;;;;;4917564;29;19907;-48
2023/03/13 01:34:44;;;;;;;;;;;25.70;99.90;;;;;;4917821;29;19954;-49
2023/03/13 01:37:10;;;;;;;;;;;25.70;99.90;;;;;;4917405;29;19907;-48
2023/03/13 01:39:35;;;;;;;;;;;25.60;99.90;;;;;;4917328;29;19907;-50
2023/03/13 01:42:02;;;;;;;;;;;25.60;99.90;;;;;;4919707;29;19954;-49
2023/03/13 01:44:28;;;;;;;;;;;25.60;99.90;;;;;;4927856;29;19943;-49
2023/03/13 01:46:53;;;;;;;;;;;25.60;99.90;;;;;;4917751;29;20089;-49
2023/03/13 01:49:26;;;;;;;;;;;25.60;99.90;;;;;;4917573;29;19974;-49
2023/03/13 01:52:12;;;;;;;;;;;25.60;99.90;;;;;;4917488;29;19946;-49
2023/03/13 01:54:44;;;;;;;;;;;25.60;99.90;;;;;;4917652;29;20298;-50
2023/03/13 01:57:16;;;;;;;;;;;25.60;99.90;;;;;;4917382;29;19910;-50
2023/03/13 02:00:02;;;;;;;;;;;25.50;99.90;;;;;;4917578;29;19923;-49
2023/03/13 02:02:28;;;;;;;;;;;25.50;99.90;;;;;;4917050;29;19918;-50
2023/03/13 02:04:56;;;;;;;;;;;25.50;99.90;;;;;;4917359;29;19962;-49
2023/03/13 02:07:26;;;;;;;;;;;25.50;99.90;;;;;;4917060;29;19915;-50
2023/03/13 02:09:54;;;;;;;;;;;25.50;99.90;;;;;;4917061;29;19980;-50
2023/03/13 02:12:46;;;;;;;;;;;25.50;99.90;;;;;;4916897;29;19907;-49
2023/03/13 02:15:16;;;;;;;;;;;25.50;99.90;;;;;;4916935;29;19907;-50
2023/03/13 02:17:43;;;;;;;;;;;25.40;99.90;;;;;;4928932;29;19911;-50
2023/03/13 02:20:09;;;;;;;;;;;25.40;99.90;;;;;;4916854;29;19907;-50
2023/03/13 02:23:01;;;;;;;;;;;25.40;99.90;;;;;;4912487;29;19908;-50
2023/03/13 02:25:31;;;;;;;;;;;25.40;99.90;;;;;;4907264;29;20021;-50
2023/03/13 02:28:02;;;;;;;;;;;25.40;99.90;;;;;;4917014;29;19915;-50
2023/03/13 02:30:27;;;;;;;;;;;25.40;99.90;;;;;;4916774;29;20450;-49
2023/03/13 02:32:53;;;;;;;;;;;25.40;99.90;;;;;;4916903;29;20001;-49
2023/03/13 02:35:21;;;;;;;;;;;25.40;99.90;;;;;;4914414;29;19970;-50
2023/03/13 02:37:48;;;;;;;;;;;25.40;99.90;;;;;;4916589;29;19907;-49
2023/03/13 02:40:20;;;;;;;;;;;25.40;99.90;;;;;;4916564;29;20375;-50
2023/03/13 02:42:46;;;;;;;;;;;25.30;99.90;;;;;;4916648;29;19962;-50
2023/03/13 02:45:15;;;;;;;;;;;25.30;99.90;;;;;;4916392;29;19907;-50
2023/03/13 02:47:41;;;;;;;;;;;25.30;99.90;;;;;;4916673;29;19915;-50
2023/03/13 02:50:06;;;;;;;;;;;25.30;99.90;;;;;;4916523;29;20373;-50
2023/03/13 02:52:37;;;;;;;;;;;25.30;99.90;;;;;;4915752;29;19971;-49
2023/03/13 02:55:08;;;;;;;;;;;25.30;99.90;;;;;;4916659;29;19907;-50
2023/03/13 02:57:34;;;;;;;;;;;25.30;99.90;;;;;;4916489;29;20389;-50
2023/03/13 03:00:00;;;;;;;;;;;25.30;99.90;;;;;;4916860;29;19962;-50
2023/03/13 03:02:26;;;;;;;;;;;25.30;99.90;;;;;;4916463;29;19907;-50
2023/03/13 03:04:51;;;;;;;;;;;25.30;99.90;;;;;;4916373;29;20363;-50
2023/03/13 03:07:17;;;;;;;;;;;25.20;99.90;;;;;;4916172;29;20014;-49
2023/03/13 03:09:42;;;;;;;;;;;25.20;99.90;;;;;;4916286;29;20478;-50
2023/03/13 03:12:08;;;;;;;;;;;25.20;99.90;;;;;;4916432;29;20359;-50
2023/03/13 03:14:34;;;;;;;;;;;25.20;99.90;;;;;;4916200;29;20309;-50
2023/03/13 03:16:59;;;;;;;;;;;25.20;99.90;;;;;;4909635;29;20364;-47
2023/03/13 03:19:25;;;;;;;;;;;25.20;99.90;;;;;;4899157;29;20364;-47
2023/03/13 03:21:51;;;;;;;;;;;25.20;99.90;;;;;;4897099;29;19911;-50
2023/03/13 03:24:16;;;;;;;;;;;25.20;99.90;;;;;;4900521;29;20317;-50
2023/03/13 03:26:42;;;;;;;;;;;25.20;99.90;;;;;;4897905;29;19998;-50
2023/03/13 03:29:07;;;;;;;;;;;25.20;99.90;;;;;;4898749;29;19915;-50
2023/03/13 03:31:33;;;;;;;;;;;25.20;99.90;;;;;;4902799;29;19967;-50
2023/03/13 03:33:59;;;;;;;;;;;25.10;99.90;;;;;;4906802;29;19907;-50
2023/03/13 03:36:25;;;;;;;;;;;25.10;99.90;;;;;;4900686;29;19914;-51
2023/03/13 03:38:51;;;;;;;;;;;25.10;99.90;;;;;;4905810;29;20395;-51
2023/03/13 03:41:18;;;;;;;;;;;25.10;99.90;;;;;;4902646;29;20062;-50
2023/03/13 03:43:44;;;;;;;;;;;25.10;99.90;;;;;;4896192;29;19955;-49
2023/03/13 03:46:09;;;;;;;;;;;25.10;99.90;;;;;;4906455;29;19994;-50
2023/03/13 03:48:35;;;;;;;;;;;25.10;99.90;;;;;;4902393;29;20332;-50
2023/03/13 03:51:01;;;;;;;;;;;25.10;99.90;;;;;;4908167;29;20390;-50
2023/03/13 03:53:27;;;;;;;;;;;25.10;99.90;;;;;;4899646;29;19907;-50
2023/03/13 03:55:52;;;;;;;;;;;25.10;99.90;;;;;;4898510;29;20444;-50
2023/03/13 03:58:18;;;;;;;;;;;25.10;99.90;;;;;;4899155;29;19907;-50
2023/03/13 04:00:45;;;;;;;;;;;25.00;99.90;;;;;;4906552;23;19930;-48
2023/03/13 04:03:10;;;;;;;;;;;25.00;99.90;;;;;;4897263;29;19922;-49
2023/03/13 04:05:36;;;;;;;;;;;25.00;99.90;;;;;;4899536;29;19907;-49
2023/03/13 04:08:02;;;;;;;;;;;25.00;99.90;;;;;;4913017;29;19969;-49
2023/03/13 04:10:27;;;;;;;;;;;25.00;99.90;;;;;;4900678;29;19907;-49
2023/03/13 04:12:53;;;;;;;;;;;25.00;99.90;;;;;;4900321;29;19954;-49
2023/03/13 04:15:18;;;;;;;;;;;25.00;99.90;;;;;;4900250;29;19983;-49
2023/03/13 04:17:44;;;;;;;;;;;25.00;99.90;;;;;;4900488;29;20015;-49
2023/03/13 04:20:12;;;;;;;;;;;25.00;99.90;;;;;;4900273;29;19917;-49
2023/03/13 04:22:38;;;;;;;;;;;25.00;99.90;;;;;;4900116;29;19999;-49
2023/03/13 04:25:04;;;;;;;;;;;25.00;99.90;;;;;;4900112;29;19912;-49
2023/03/13 04:27:31;;;;;;;;;;;25.00;99.90;;;;;;4900259;29;19922;-49
2023/03/13 04:29:56;;;;;;;;;;;25.00;99.90;;;;;;4899866;29;19907;-48
2023/03/13 04:32:22;;;;;;;;;;;24.90;99.90;;;;;;4900045;29;19918;-50
2023/03/13 04:34:48;;;;;;;;;;;24.90;99.90;;;;;;4900213;29;19930;-49
2023/03/13 04:37:13;;;;;;;;;;;24.90;99.90;;;;;;4899808;29;19912;-49
2023/03/13 04:39:39;;;;;;;;;;;24.90;99.90;;;;;;4899942;29;19911;-49
2023/03/13 04:42:04;;;;;;;;;;;24.90;99.90;;;;;;4899804;29;19911;-49
2023/03/13 04:44:30;;;;;;;;;;;24.90;99.90;;;;;;4899907;29;19915;-49
2023/03/13 04:46:56;;;;;;;;;;;24.90;99.90;;;;;;4914252;29;19915;-49
2023/03/13 04:49:21;;;;;;;;;;;24.80;99.90;;;;;;4899817;29;19907;-49
2023/03/13 04:51:47;;;;;;;;;;;24.90;99.90;;;;;;4899406;29;20420;-49
2023/03/13 04:54:12;;;;;;;;;;;24.80;99.90;;;;;;4899724;29;19907;-49
2023/03/13 04:56:38;;;;;;;;;;;24.80;99.90;;;;;;4899457;29;19908;-49
2023/03/13 04:59:04;;;;;;;;;;;24.80;99.90;;;;;;4904969;29;19907;-49
2023/03/13 05:01:30;;;;;;;;;;;24.80;99.90;;;;;;4906405;29;19963;-49
2023/03/13 05:03:55;;;;;;;;;;;24.80;99.90;;;;;;4898155;29;20050;-49
2023/03/13 05:06:21;;;;;;;;;;;24.80;99.90;;;;;;4899491;29;19912;-48
2023/03/13 05:08:47;;;;;;;;;;;24.80;99.90;;;;;;4911884;29;19954;-48
2023/03/13 05:11:12;;;;;;;;;;;24.80;99.90;;;;;;4899398;29;19907;-48
2023/03/13 05:13:38;;;;;;;;;;;24.70;99.90;;;;;;4899212;29;19914;-48
2023/03/13 05:16:04;;;;;;;;;;;24.70;99.90;;;;;;4898528;29;19907;-49
2023/03/13 05:18:29;;;;;;;;;;;24.70;99.90;;;;;;4899147;29;19911;-48
2023/03/13 05:20:55;;;;;;;;;;;24.70;99.90;;;;;;4899252;29;19994;-49
2023/03/13 05:23:21;;;;;;;;;;;24.70;99.90;;;;;;4898998;29;19907;-49
2023/03/13 05:25:46;;;;;;;;;;;24.70;99.90;;;;;;4899075;29;19908;-48
2023/03/13 05:28:12;;;;;;;;;;;24.70;99.90;;;;;;4899063;29;19915;-48
2023/03/13 05:30:37;;;;;;;;;;;24.70;99.90;;;;;;4898706;29;19907;-48
2023/03/13 05:33:03;;;;;;;;;;;24.70;99.90;;;;;;4899435;29;20407;-48
2023/03/13 05:35:29;;;;;;;;;;;24.60;99.90;;;;;;4898910;29;19957;-48
2023/03/13 05:37:54;;;;;;;;;;;24.60;99.90;;;;;;4898749;29;19911;-48
2023/03/13 05:40:20;;;;;;;;;;;24.60;99.90;;;;;;4898751;29;19907;-48
2023/03/13 05:42:45;;;;;;;;;;;24.60;99.90;;;;;;4898685;29;19915;-48
2023/03/13 05:45:11;;;;;;;;;;;24.60;99.90;;;;;;4898457;29;19915;-49
2023/03/13 05:47:38;;;;;;;;;;;24.60;99.90;;;;;;4899096;29;19915;-49
2023/03/13 05:50:04;;;;;;;;;;;24.60;99.90;;;;;;4898604;29;19907;-48
2023/03/13 05:52:30;;;;;;;;;;;24.60;99.90;;;;;;4898530;29;19907;-49
2023/03/13 05:54:56;;;;;;;;;;;24.50;99.90;;;;;;4897406;29;19958;-49
2023/03/13 05:57:22;;;;;;;;;;;24.50;99.90;;;;;;4898285;29;20391;-49
2023/03/13 05:59:47;;;;;;;;;;;24.50;99.90;;;;;;4898228;29;19907;-49
2023/03/13 06:02:13;;;;;;;;;;;24.50;99.90;;;;;;4902853;29;19930;-49
2023/03/13 06:04:38;;;;;;;;;;;24.50;99.90;;;;;;4906989;29;20634;-49
2023/03/13 06:07:04;;;;;;;;;;;24.50;99.90;;;;;;4898063;29;19998;-48
2023/03/13 06:09:29;;;;;;;;;;;24.50;99.90;;;;;;4898328;29;20388;-49
2023/03/13 06:11:55;;;;;;;;;;;24.50;99.90;;;;;;4912668;29;19908;-49
2023/03/13 06:14:21;;;;;;;;;;;24.50;99.90;;;;;;4898028;29;19908;-49
2023/03/13 06:16:47;;;;;;;;;;;24.40;99.90;;;;;;4897994;29;20360;-48
2023/03/13 06:19:12;;;;;;;;;;;24.50;99.90;;;;;;4912536;29;19914;-49
2023/03/13 06:21:38;;;;;;;;;;;24.40;99.90;;;;;;4898085;29;19907;-49
2023/03/13 06:24:04;;;;;;;;;;;24.40;99.90;;;;;;4912380;29;20029;-49
2023/03/13 06:26:29;;;;;;;;;;;24.40;99.90;;;;;;4897973;29;19915;-49
2023/03/13 06:28:55;;;;;;;;;;;24.50;99.90;;;;;;4897929;29;20006;-49
2023/03/13 06:31:21;;;;;;;;;;;24.40;99.90;;;;;;4896399;29;20271;-50
2023/03/13 06:33:46;;;;;;;;;;;24.40;99.90;;;;;;4897876;29;20330;-49
2023/03/13 06:36:12;;;;;;;;;;;24.40;99.90;;;;;;4893519;29;19907;-49
2023/03/13 06:38:38;;;;;;;;;;;24.40;99.90;;;;;;4894675;29;19990;-49
2023/03/13 06:41:03;;;;;;;;;;;24.40;99.90;;;;;;4897784;29;20279;-50
2023/03/13 06:43:29;;;;;;;;;;;24.30;99.90;;;;;;4897619;29;19919;-49
2023/03/13 06:45:55;;;;;;;;;;;24.40;99.90;;;;;;4897583;29;19935;-50
2023/03/13 06:48:21;;;;;;;;;;;24.30;99.90;;;;;;4897660;29;19915;-49
2023/03/13 06:50:47;;;;;;;;;;;24.40;99.90;;;;;;4897581;29;19907;-50
2023/03/13 06:53:17;;;;;;;;;;;24.30;99.90;;;;;;4897406;29;20051;-49
2023/03/13 06:55:43;;;;;;;;;;;24.40;99.90;;;;;;4897449;29;19962;-50
2023/03/13 06:58:10;;;;;;;;;;;24.30;99.90;;;;;;4897860;29;19907;-50
2023/03/13 07:00:38;;;;;;;;;;;24.30;99.90;;;;;;4897100;29;20398;-50
2023/03/13 07:03:03;;;;;;;;;;;24.30;99.90;;;;;;4897459;29;19908;-50
2023/03/13 07:05:29;;;;;;;;;;;24.30;99.90;;;;;;4897317;29;20279;-49
2023/03/13 07:07:55;;;;;;;;;;;24.30;99.90;;;;;;4897185;29;19919;-49
2023/03/13 07:10:20;;;;;;;;;;;24.30;99.90;;;;;;4897353;29;20276;-49
2023/03/13 07:12:46;;;;;;;;;;;24.30;99.90;;;;;;4897552;29;20002;-49
2023/03/13 07:15:11;;;;;;;;;;;24.30;99.90;;;;;;4897384;29;19908;-49
2023/03/13 07:17:37;;;;;;;;;;;24.30;99.90;;;;;;4897261;29;20271;-49
2023/03/13 07:20:04;;;;;;;;;;;24.30;99.90;;;;;;4897376;29;19915;-50
2023/03/13 07:22:30;;;;;;;;;;;24.30;99.90;;;;;;4897227;29;19907;-50
2023/03/13 07:24:55;;;;;;;;;;;24.30;99.90;;;;;;4911863;29;19982;-50
2023/03/13 07:27:21;;;;;;;;;;;24.30;99.90;;;;;;4897183;29;19985;-50
2023/03/13 07:29:47;;;;;;;;;;;24.30;99.90;;;;;;4897088;29;19995;-50
2023/03/13 07:32:13;;;;;;;;;;;24.40;99.90;;;;;;4897434;29;19914;-50
2023/03/13 07:34:38;;;;;;;;;;;24.30;99.90;;;;;;4897207;29;20317;-49
2023/03/13 07:37:04;;;;;;;;;;;24.30;99.90;;;;;;4896911;29;19912;-50
2023/03/13 07:39:30;;;;;;;;;;;24.40;99.90;;;;;;4900200;29;19914;-50
2023/03/13 07:41:56;;;;;;;;;;;24.40;99.90;;;;;;4900965;29;20061;-50
2023/03/13 07:44:21;;;;;;;;;;;24.40;99.90;;;;;;4900747;29;19907;-49
2023/03/13 07:46:48;;;;;;;;;;;24.40;99.90;;;;;;4900940;29;19914;-49
2023/03/13 07:49:14;;;;;;;;;;;24.40;99.90;;;;;;4913368;29;20010;-49
2023/03/13 07:51:40;;;;;;;;;;;24.40;99.90;;;;;;4900868;29;20002;-51
2023/03/13 07:54:05;;;;;;;;;;;24.40;99.90;;;;;;4914910;29;20379;-49
2023/03/13 07:56:31;;;;;;;;;;;24.50;99.90;;;;;;4899574;29;19912;-49
2023/03/13 07:58:57;;;;;;;;;;;24.50;99.90;;;;;;4900355;29;19907;-49
2023/03/13 08:01:24;;;;;;;;;;;24.50;99.90;;;;;;4900380;29;19919;-50
2023/03/13 08:03:50;;;;;;;;;;;24.50;99.90;;;;;;4900506;29;20364;-50
2023/03/13 08:06:16;;;;;;;;;;;24.50;99.90;;;;;;4900738;29;19917;-50
2023/03/13 08:08:42;;;;;;;;;;;24.50;99.90;;;;;;4900246;29;19922;-50
2023/03/13 08:11:09;;;;;;;;;;;24.50;99.90;;;;;;4900428;29;19908;-50
2023/03/13 08:13:35;;;;;;;;;;;24.50;99.90;;;;;;4900404;29;20065;-49
2023/03/13 08:16:06;;;;;;;;;;;24.60;99.90;;;;;;4900320;29;19998;-50
2023/03/13 08:18:33;;;;;;;;;;;24.60;99.90;;;;;;4900232;29;19911;-50
2023/03/13 08:21:00;;;;;;;;;;;24.60;99.90;;;;;;4900252;29;20360;-49
2023/03/13 08:23:25;;;;;;;;;;;24.60;99.90;;;;;;4899941;29;19912;-50
2023/03/13 08:25:51;;;;;;;;;;;24.70;99.90;;;;;;4900319;29;19915;-50
2023/03/13 08:28:17;;;;;;;;;;;24.70;99.90;;;;;;4900218;29;20287;-49
2023/03/13 08:30:42;;;;;;;;;;;24.60;99.90;;;;;;4899993;29;19955;-50
2023/03/13 08:33:08;;;;;;;;;;;24.70;99.90;;;;;;4899894;29;19912;-50
2023/03/13 08:35:33;;;;;;;;;;;24.70;99.90;;;;;;4900149;29;19975;-50
2023/03/13 08:37:59;;;;;;;;;;;24.70;99.90;;;;;;4899864;29;19994;-50
2023/03/13 08:40:25;;;;;;;;;;;24.70;99.90;;;;;;4900220;29;19908;-50
2023/03/13 08:42:50;;;;;;;;;;;24.70;99.90;;;;;;4899819;29;19915;-50
2023/03/13 08:45:16;;;;;;;;;;;24.70;99.90;;;;;;4899928;29;19942;-50
2023/03/13 08:47:41;;;;;;;;;;;24.70;99.90;;;;;;4899764;29;19915;-49
2023/03/13 08:50:07;;;;;;;;;;;24.70;99.90;;;;;;4898636;29;19955;-50
2023/03/13 08:52:33;;;;;;;;;;;24.70;99.90;;;;;;4899607;29;19971;-50
2023/03/13 08:54:58;;;;;;;;;;;24.70;99.90;;;;;;4899648;29;19954;-50
2023/03/13 08:57:24;;;;;;;;;;;24.70;99.90;;;;;;4899644;29;19955;-50
2023/03/13 08:59:50;;;;;;;;;;;24.70;99.90;;;;;;4908817;29;20400;-50
2023/03/13 09:02:18;;;;;;;;;;;24.80;99.90;;;;;;4902414;29;19959;-50
2023/03/13 09:04:44;;;;;;;;;;;24.80;99.90;;;;;;4899555;29;19907;-50
2023/03/13 09:07:10;;;;;;;;;;;24.80;99.90;;;;;;4899111;29;19915;-50
2023/03/13 09:09:36;;;;;;;;;;;24.80;99.90;;;;;;4899478;29;20056;-49
2023/03/13 09:12:02;;;;;;;;;;;24.80;99.90;;;;;;4899192;29;20352;-50
2023/03/13 09:14:28;;;;;;;;;;;24.80;99.90;;;;;;4899188;29;19943;-50
2023/03/13 09:16:55;;;;;;;;;;;24.90;99.90;;;;;;4899139;29;20006;-50
2023/03/13 09:19:20;;;;;;;;;;;24.80;99.90;;;;;;4899473;29;19915;-50
2023/03/13 09:21:48;;;;;;;;;;;24.90;99.90;;;;;;4899177;29;19914;-51
2023/03/13 09:24:13;;;;;;;;;;;24.90;99.90;;;;;;4899145;29;19907;-51
2023/03/13 09:26:39;;;;;;;;;;;24.90;99.90;;;;;;4899095;29;20368;-51
2023/03/13 09:29:05;;;;;;;;;;;24.90;99.90;;;;;;4898912;29;19919;-51
2023/03/13 09:31:31;;;;;;;;;;;24.90;99.90;;;;;;4898737;29;19943;-51
2023/03/13 09:33:57;;;;;;;;;;;24.90;99.90;;;;;;4890660;29;19908;-49
2023/03/13 09:36:23;;;;;;;;;;;25.00;99.90;;;;;;4894823;29;19907;-48
2023/03/13 09:38:53;;;;;;;;;;;24.90;99.90;;;;;;4894888;29;19914;-49
2023/03/13 09:41:21;;;;;;;;;;;25.00;99.90;;;;;;4896233;29;19911;-49
2023/03/13 09:43:49;;;;;;;;;;;25.00;99.90;;;;;;4896689;29;19911;-49
2023/03/13 09:46:21;;;;;;;;;;;25.00;99.90;;;;;;4893720;29;19963;-49
2023/03/13 09:48:49;;;;;;;;;;;25.00;99.90;;;;;;4896270;29;19971;-49
2023/03/13 09:51:23;;;;;;;;;;;25.00;99.90;;;;;;4896102;29;19979;-49
2023/03/13 09:53:54;;;;;;;;;;;25.00;99.90;;;;;;4896732;29;19999;-49
2023/03/13 09:56:23;;;;;;;;;;;25.00;99.90;;;;;;4896519;29;20368;-49
2023/03/13 09:59:01;;;;;;;;;;;25.10;99.90;;;;;;4896411;29;19947;-49
2023/03/13 10:01:30;;;;;;;;;;;25.10;99.90;;;;;;4895437;29;19963;-49
2023/03/13 10:04:04;;;;;;;;;;;25.10;99.90;;;;;;4896132;29;19955;-49
2023/03/13 10:06:32;;;;;;;;;;;25.10;99.90;;;;;;4895967;29;19994;-49
2023/03/13 10:09:00;;;;;;;;;;;25.20;99.90;;;;;;4897728;29;20344;-49
2023/03/13 10:11:31;;;;;;;;;;;25.20;99.90;;;;;;4909936;29;19918;-49
2023/03/13 10:14:06;;;;;;;;;;;25.20;99.90;;;;;;4895952;29;19907;-49
2023/03/13 10:16:43;;;;;;;;;;;25.30;99.90;;;;;;4892814;29;19990;-50
2023/03/13 10:19:21;;;;;;;;;;;25.30;99.90;;;;;;4895679;29;19934;-49
2023/03/13 10:21:49;;;;;;;;;;;25.40;99.90;;;;;;4895540;29;20272;-47
2023/03/13 10:24:26;;;;;;;;;;;25.40;99.90;;;;;;4895626;29;19922;-49
2023/03/13 10:26:54;;;;;;;;;;;25.40;99.90;;;;;;4894505;29;19912;-48
2023/03/13 10:29:22;;;;;;;;;;;25.40;99.90;;;;;;4894700;29;20010;-49
2023/03/13 10:32:06;;;;;;;;;;;25.40;99.90;;;;;;4895644;29;19916;-49
2023/03/13 10:34:50;;;;;;;;;;;25.40;99.90;;;;;;4894522;29;19907;-49
2023/03/13 10:37:18;;;;;;;;;;;25.50;99.90;;;;;;4894272;29;19912;-50
2023/03/13 10:39:44;;;;;;;;;;;25.50;99.90;;;;;;4895887;29;19911;-49
2023/03/13 10:42:16;;;;;;;;;;;25.50;99.90;;;;;;4895287;29;19907;-49
2023/03/13 10:44:42;;;;;;;;;;;25.60;99.90;;;;;;4893128;29;19971;-49
2023/03/13 10:47:11;;;;;;;;;;;25.60;99.90;;;;;;4894896;29;20379;-49
2023/03/13 10:49:45;;;;;;;;;;;25.60;99.90;;;;;;4895686;29;19916;-49
2023/03/13 10:52:26;;;;;;;;;;;25.70;99.90;;;;;;4895266;29;19908;-49
2023/03/13 10:54:55;;;;;;;;;;;25.70;99.90;;;;;;4895789;29;19908;-50
2023/03/13 10:57:23;;;;;;;;;;;25.80;99.90;;;;;;4895197;29;19915;-50
2023/03/13 10:59:50;;;;;;;;;;;25.70;99.90;;;;;;4895418;29;19931;-50
2023/03/13 11:02:20;;;;;;;;;;;25.80;99.90;;;;;;4895572;29;19911;-51
2023/03/13 11:04:50;;;;;;;;;;;25.80;99.90;;;;;;4895221;29;20073;-49
2023/03/13 11:07:19;;;;;;;;;;;25.80;99.90;;;;;;4894880;29;20268;-50
2023/03/13 11:10:05;;;;;;;;;;;25.80;99.90;;;;;;4892690;29;19926;-50
2023/03/13 11:12:34;;;;;;;;;;;25.80;99.90;;;;;;4898038;29;19963;-50
2023/03/13 11:15:00;;;;;;;;;;;25.80;99.90;;;;;;4892589;29;20439;-50
2023/03/13 11:17:29;;;;;;;;;;;25.80;99.90;;;;;;4894807;29;19911;-49
2023/03/13 11:20:05;;;;;;;;;;;25.80;99.90;;;;;;4895423;29;19907;-49
2023/03/13 11:22:42;;;;;;;;;;;25.80;99.90;;;;;;4894782;29;19907;-49
2023/03/13 11:25:26;;;;;;;;;;;25.80;99.90;;;;;;4895388;29;19951;-49
2023/03/13 11:27:52;;;;;;;;;;;25.80;99.90;;;;;;4894448;29;19926;-50
2023/03/13 11:30:27;;;;;;;;;;;25.80;99.90;;;;;;4895281;29;19908;-50
2023/03/13 11:32:59;;;;;;;;;;;25.80;99.90;;;;;;4895204;29;20275;-50
2023/03/13 11:35:37;;;;;;;;;;;25.80;99.90;;;;;;4894461;29;19912;-50
2023/03/13 11:38:06;;;;;;;;;;;25.80;99.90;;;;;;4893077;29;19914;-49
2023/03/13 11:40:49;;;;;;;;;;;25.80;99.90;;;;;;4894840;29;19907;-49
2023/03/13 11:43:46;;;;;;;;;;;25.80;99.90;;;;;;4893677;29;19911;-49
2023/03/13 11:46:18;;;;;;;;;;;25.70;99.90;;;;;;4903561;29;19911;-49
2023/03/13 11:48:57;;;;;;;;;;;25.70;99.90;;;;;;4890312;29;20018;-49
2023/03/13 11:51:29;;;;;;;;;;;25.70;99.90;;;;;;4894835;29;19942;-50
2023/03/13 11:53:57;;;;;;;;;;;25.60;99.90;;;;;;4895062;29;19907;-49
2023/03/13 11:56:43;;;;;;;;;;;25.60;99.90;;;;;;4894769;29;20340;-50
2023/03/13 11:59:20;;;;;;;;;;;25.60;99.90;;;;;;4890543;29;19911;-49
2023/03/13 12:01:50;;;;;;;;;;;25.60;99.90;;;;;;4894498;29;19920;-49
2023/03/13 12:04:24;;;;;;;;;;;25.60;99.90;;;;;;4894717;29;19938;-49
2023/03/13 12:06:53;;;;;;;;;;;25.60;99.90;;;;;;4894613;29;19908;-50
2023/03/13 12:09:24;;;;;;;;;;;25.60;99.90;;;;;;4895176;29;19922;-49
2023/03/13 12:12:02;;;;;;;;;;;25.60;99.90;;;;;;4894991;29;19915;-49
2023/03/13 12:14:35;;;;;;;;;;;25.60;99.90;;;;;;4894572;29;19907;-49
2023/03/13 12:17:24;;;;;;;;;;;25.60;99.90;;;;;;4908954;29;19915;-50
2023/03/13 12:19:49;;;;;;;;;;;25.60;99.90;;;;;;4895082;29;20002;-49
2023/03/13 12:22:21;;;;;;;;;;;25.60;99.90;;;;;;4892970;29;20318;-49
2023/03/13 12:25:10;;;;;;;;;;;25.70;99.90;;;;;;4896293;29;20441;-49
2023/03/13 12:27:38;;;;;;;;;;;25.70;99.90;;;;;;4897857;29;19997;-49
2023/03/13 12:30:06;;;;;;;;;;;25.70;99.90;;;;;;4897128;29;19907;-49
2023/03/13 12:32:32;;;;;;;;;;;25.70;99.90;;;;;;4897825;29;19908;-49
2023/03/13 12:35:00;;;;;;;;;;;25.70;99.90;;;;;;4897781;29;20340;-49
2023/03/13 12:37:52;;;;;;;;;;;25.80;99.90;;;;;;4897321;29;19963;-49
2023/03/13 12:40:33;;;;;;;;;;;25.80;99.90;;;;;;4895600;29;19915;-49
2023/03/13 12:43:04;;;;;;;;;;;25.80;99.90;;;;;;4894844;29;19926;-49
2023/03/13 12:45:31;;;;;;;;;;;25.80;99.90;;;;;;4897496;29;19963;-49
2023/03/13 12:47:59;;;;;;;;;;;25.80;99.90;;;;;;4897480;29;20332;-49
2023/03/13 12:50:43;;;;;;;;;;;25.80;99.90;;;;;;4897432;29;20022;-49
2023/03/13 12:53:31;;;;;;;;;;;25.80;99.90;;;;;;4897156;29;19907;-49
2023/03/13 12:56:12;;;;;;;;;;;25.80;99.90;;;;;;4896824;29;20268;-47
2023/03/13 12:59:13;;;;;;;;;;;25.90;99.90;;;;;;4896978;29;19907;-49
2023/03/13 13:01:40;;;;;;;;;;;25.90;99.90;;;;;;4913440;29;19974;-50
2023/03/13 13:04:09;;;;;;;;;;;25.90;99.90;;;;;;4900603;29;19911;-50
2023/03/13 13:06:50;;;;;;;;;;;25.90;99.90;;;;;;4896137;29;19931;-49
2023/03/13 13:09:19;;;;;;;;;;;25.90;99.90;;;;;;4897044;29;19919;-51
2023/03/13 13:11:46;;;;;;;;;;;25.90;99.90;;;;;;4896878;29;19915;-51
2023/03/13 13:14:15;;;;;;;;;;;25.90;99.90;;;;;;4897022;29;19907;-50
2023/03/13 13:16:42;;;;;;;;;;;25.90;99.90;;;;;;4899820;29;19915;-50
2023/03/13 13:19:31;;;;;;;;;;;25.90;99.90;;;;;;4911117;29;20002;-49
2023/03/13 13:22:17;;;;;;;;;;;26.00;99.90;;;;;;4894568;29;20014;-49
2023/03/13 13:24:52;;;;;;;;;;;26.00;99.90;;;;;;4896689;29;19965;-49
2023/03/13 13:27:36;;;;;;;;;;;26.00;99.90;;;;;;4896777;29;19907;-49
2023/03/13 13:30:22;;;;;;;;;;;26.00;99.90;;;;;;4911051;29;19907;-49
2023/03/13 13:32:49;;;;;;;;;;;26.00;99.90;;;;;;4897053;29;19911;-49
2023/03/13 13:35:20;;;;;;;;;;;26.00;99.90;;;;;;4896350;29;19911;-49
2023/03/13 13:37:46;;;;;;;;;;;26.00;99.90;;;;;;4896542;29;19969;-49
2023/03/13 13:40:14;;;;;;;;;;;26.00;99.90;;;;;;4893214;29;19954;-49
2023/03/13 13:42:46;;;;;;;;;;;25.90;99.90;;;;;;4893107;29;19911;-49
2023/03/13 13:45:15;;;;;;;;;;;26.00;99.90;;;;;;4907743;29;20356;-50
2023/03/13 13:47:42;;;;;;;;;;;26.00;99.90;;;;;;4893312;29;19923;-50
2023/03/13 13:50:27;;;;;;;;;;;26.00;99.90;;;;;;4896099;29;19907;-49
2023/03/13 13:53:13;;;;;;;;;;;26.00;99.90;;;;;;4892533;29;19930;-50
2023/03/13 13:55:39;;;;;;;;;;;26.00;99.90;;;;;;4895232;29;19930;-50
2023/03/13 13:58:09;;;;;;;;;;;26.00;99.90;;;;;;4895059;29;20352;-50
2023/03/13 14:00:39;;;;;;;;;;;26.00;99.90;;;;;;4893207;29;19923;-49
2023/03/13 14:03:31;;;;;;;;;;;26.00;99.90;;;;;;4895280;29;19919;-49
2023/03/13 14:06:17;;;;;;;;;;;26.00;99.90;;;;;;4894786;29;20050;-49
2023/03/13 14:08:44;;;;;;;;;;;26.10;99.90;;;;;;4895716;29;19923;-49
2023/03/13 14:11:13;;;;;;;;;;;26.10;99.90;;;;;;4893030;29;19907;-49
2023/03/13 14:13:39;;;;;;;;;;;26.10;99.90;;;;;;4895376;29;19907;-49
2023/03/13 14:16:23;;;;;;;;;;;26.10;99.90;;;;;;4895415;29;20378;-49
2023/03/13 14:18:49;;;;;;;;;;;26.10;99.90;;;;;;4895817;29;19955;-49
2023/03/13 14:21:20;;;;;;;;;;;26.10;99.90;;;;;;4895358;29;19950;-49
2023/03/13 14:23:45;;;;;;;;;;;26.10;99.90;;;;;;4892313;29;19966;-49
2023/03/13 14:26:16;;;;;;;;;;;26.20;99.90;;;;;;4894666;29;19975;-49